createdAt,value
2018-03-22T00:00:48.595Z,101562
2018-03-22T00:03:16.995Z,101551
2018-03-22T00:05:45.351Z,101556
2018-03-22T00:08:14.547Z,101551
2018-03-22T00:10:43.891Z,101546
2018-03-22T00:13:12.227Z,101542
2018-03-22T00:15:41.695Z,101547
2018-03-22T00:18:10.101Z,101540
2018-03-22T00:20:39.202Z,101529
2018-03-22T00:23:08.288Z,101531
2018-03-22T00:25:37.565Z,101527
2018-03-22T00:28:05.960Z,101528
2018-03-22T00:30:35.091Z,101528
2018-03-22T00:33:03.366Z,101520
2018-03-22T00:35:31.673Z,101521
2018-03-22T00:37:59.994Z,101520
2018-03-22T00:40:29.047Z,101526
2018-03-22T00:42:57.383Z,101514
2018-03-22T00:45:25.651Z,101518
2018-03-22T00:47:54.993Z,101511
2018-03-22T00:50:23.334Z,101504
2018-03-22T00:52:51.789Z,101498
2018-03-22T00:55:20.211Z,101493
2018-03-22T00:57:48.610Z,101492
2018-03-22T01:00:17.120Z,101478
2018-03-22T01:02:45.447Z,101475
2018-03-22T01:05:13.782Z,101478
2018-03-22T01:07:42.189Z,101471
2018-03-22T01:10:10.665Z,101455
2018-03-22T01:12:39.920Z,101459
2018-03-22T01:15:08.382Z,101449
2018-03-22T01:17:36.690Z,101452
2018-03-22T01:20:05.004Z,101446
2018-03-22T01:22:33.266Z,101436
2018-03-22T01:25:02.426Z,101431
2018-03-22T01:27:30.715Z,101417
2018-03-22T01:29:59.016Z,101415
2018-03-22T01:32:28.515Z,101412
2018-03-22T01:34:57.837Z,101399
2018-03-22T01:37:26.355Z,101388
2018-03-22T01:39:54.632Z,101384
2018-03-22T01:42:23.080Z,101369
2018-03-22T01:44:51.352Z,101367
2018-03-22T01:47:19.736Z,101359
2018-03-22T01:49:48.194Z,101346
2018-03-22T01:52:17.266Z,101345
2018-03-22T01:54:45.668Z,101346
2018-03-22T01:57:14.898Z,101331
2018-03-22T01:59:43.174Z,101332
2018-03-22T02:02:11.630Z,101323
2018-03-22T02:04:40.088Z,101322
2018-03-22T02:07:08.405Z,101300
2018-03-22T02:09:36.844Z,101293
2018-03-22T02:12:05.330Z,101286
2018-03-22T02:14:34.396Z,101279
2018-03-22T02:17:02.846Z,101283
2018-03-22T02:19:31.451Z,101274
2018-03-22T02:21:59.766Z,101275
2018-03-22T02:24:29.060Z,101265
2018-03-22T02:26:57.408Z,101278
2018-03-22T02:29:25.669Z,101277
2018-03-22T02:31:53.972Z,101279
2018-03-22T02:34:22.500Z,101281
2018-03-22T02:36:50.788Z,101265
2018-03-22T02:39:19.306Z,101249
2018-03-22T02:41:48.136Z,101236
2018-03-22T02:44:17.327Z,101238
2018-03-22T02:46:46.388Z,101259
2018-03-22T02:49:15.447Z,101263
2018-03-22T02:51:43.794Z,101262
2018-03-22T02:54:12.826Z,101246
2018-03-22T02:56:41.148Z,101251
2018-03-22T02:59:09.487Z,101242
2018-03-22T03:01:37.806Z,101241
2018-03-22T03:04:06.897Z,101246
2018-03-22T03:06:35.180Z,101233
2018-03-22T03:09:04.360Z,101232
2018-03-22T03:11:32.731Z,101209
2018-03-22T03:14:01.247Z,101207
2018-03-22T03:16:29.541Z,101203
2018-03-22T03:18:57.827Z,101193
2018-03-22T03:21:26.337Z,101184
2018-03-22T03:23:54.621Z,101189
2018-03-22T03:26:23.025Z,101183
2018-03-22T03:28:52.106Z,101181
2018-03-22T03:31:20.414Z,101180
2018-03-22T03:33:49.587Z,101176
2018-03-22T03:36:17.906Z,101170
2018-03-22T03:38:46.196Z,101165
2018-03-22T03:41:14.510Z,101159
2018-03-22T03:43:42.842Z,101154
2018-03-22T03:46:11.152Z,101143
2018-03-22T03:48:39.561Z,101139
2018-03-22T03:51:08.606Z,101134
2018-03-22T03:53:38.235Z,101135
2018-03-22T03:56:06.555Z,101133
2018-03-22T03:58:34.926Z,101115
2018-03-22T04:01:04.060Z,101125
2018-03-22T04:03:32.481Z,101131
2018-03-22T04:06:00.792Z,101136
2018-03-22T04:08:29.102Z,101136
2018-03-22T04:10:57.546Z,101130
2018-03-22T04:13:25.833Z,101122
2018-03-22T04:15:54.214Z,101114
2018-03-22T04:18:22.812Z,101111
2018-03-22T04:20:51.101Z,101110
2018-03-22T04:23:19.461Z,101110
2018-03-22T04:25:47.725Z,101104
2018-03-22T04:28:16.083Z,101096
2018-03-22T04:30:45.125Z,101102
2018-03-22T04:33:13.553Z,101091
2018-03-22T04:35:42.623Z,101095
2018-03-22T04:38:10.990Z,101090
2018-03-22T04:40:39.295Z,101087
2018-03-22T04:43:08.346Z,101089
2018-03-22T04:45:36.656Z,101083
2018-03-22T04:48:04.977Z,101078
2018-03-22T04:50:33.522Z,101069
2018-03-22T04:53:02.590Z,101061
2018-03-22T04:55:30.943Z,101062
2018-03-22T04:57:59.322Z,101057
2018-03-22T05:00:27.740Z,101047
2018-03-22T05:02:56.068Z,101036
2018-03-22T05:05:24.350Z,101046
2018-03-22T05:07:52.656Z,101035
2018-03-22T05:10:21.157Z,101038
2018-03-22T05:12:50.356Z,101028
2018-03-22T05:15:19.447Z,100987
2018-03-22T05:17:48.542Z,101021
2018-03-22T05:20:16.862Z,101011
2018-03-22T05:22:45.206Z,101012
2018-03-22T05:25:14.357Z,101010
2018-03-22T05:27:42.668Z,101006
2018-03-22T05:30:10.947Z,101006
2018-03-22T05:32:40.100Z,100993
2018-03-22T05:35:08.552Z,101005
2018-03-22T05:37:37.016Z,100989
2018-03-22T05:40:06.098Z,100985
2018-03-22T05:42:35.166Z,100978
2018-03-22T05:45:03.697Z,100971
2018-03-22T05:47:32.215Z,100975
2018-03-22T05:50:00.642Z,100974
2018-03-22T05:52:29.695Z,100982
2018-03-22T05:54:58.021Z,100975
2018-03-22T05:57:27.151Z,100972
2018-03-22T05:59:57.543Z,100970
2018-03-22T06:02:27.816Z,100962
2018-03-22T06:04:56.176Z,100956
2018-03-22T06:07:24.473Z,100961
2018-03-22T06:09:52.968Z,100961
2018-03-22T06:12:21.501Z,100950
2018-03-22T06:14:49.788Z,100949
2018-03-22T06:17:18.238Z,100940
2018-03-22T06:19:47.321Z,100940
2018-03-22T06:22:16.403Z,100940
2018-03-22T06:24:44.755Z,100933
2018-03-22T06:27:13.185Z,100934
2018-03-22T06:29:42.362Z,100935
2018-03-22T06:32:10.707Z,100938
2018-03-22T06:34:38.962Z,100945
2018-03-22T06:37:07.300Z,100941
2018-03-22T06:39:36.356Z,100938
2018-03-22T06:42:04.622Z,100937
2018-03-22T06:44:33.648Z,100931
2018-03-22T06:47:02.046Z,100925
2018-03-22T06:49:31.351Z,100918
2018-03-22T06:51:59.592Z,100922
2018-03-22T06:54:27.992Z,100916
2018-03-22T06:56:57.077Z,100909
2018-03-22T06:59:26.227Z,100914
2018-03-22T07:01:54.687Z,100917
2018-03-22T07:04:23.099Z,100916
2018-03-22T07:06:51.733Z,100918
2018-03-22T07:09:21.127Z,100914
2018-03-22T07:11:49.497Z,100908
2018-03-22T07:14:17.821Z,100901
2018-03-22T07:16:46.315Z,100902
2018-03-22T07:19:14.917Z,100917
2018-03-22T07:21:43.371Z,100920
2018-03-22T07:24:11.692Z,100912
2018-03-22T07:26:40.157Z,100923
2018-03-22T07:29:08.579Z,100907
2018-03-22T07:31:37.021Z,100907
2018-03-22T07:34:05.568Z,100897
2018-03-22T07:36:33.917Z,100897
2018-03-22T07:39:04.117Z,100897
2018-03-22T07:41:32.582Z,100894
2018-03-22T07:44:06.394Z,100889
2018-03-22T07:46:34.807Z,100890
2018-03-22T07:49:03.848Z,100892
2018-03-22T07:51:32.247Z,100884
2018-03-22T07:54:00.573Z,100886
2018-03-22T07:56:28.891Z,100884
2018-03-22T07:58:57.327Z,100885
2018-03-22T08:01:26.421Z,100879
2018-03-22T08:03:54.702Z,100875
2018-03-22T08:06:23.209Z,100872
2018-03-22T08:08:51.672Z,100863
2018-03-22T08:11:19.976Z,100864
2018-03-22T08:13:49.532Z,100864
2018-03-22T08:16:17.807Z,100865
2018-03-22T08:18:46.141Z,100859
2018-03-22T08:21:14.507Z,100852
2018-03-22T08:23:42.991Z,100849
2018-03-22T08:26:11.298Z,100845
2018-03-22T08:28:40.475Z,100837
2018-03-22T08:31:08.904Z,100834
2018-03-22T08:33:37.221Z,100837
2018-03-22T08:36:05.617Z,100836
2018-03-22T08:38:34.098Z,100827
2018-03-22T08:41:02.695Z,100812
2018-03-22T08:43:31.944Z,100806
2018-03-22T08:46:00.352Z,100805
2018-03-22T08:48:28.882Z,100811
2018-03-22T08:50:57.237Z,100811
2018-03-22T08:53:26.322Z,100813
2018-03-22T08:55:54.699Z,100808
2018-03-22T08:58:23.859Z,100803
2018-03-22T09:00:52.470Z,100804
2018-03-22T09:03:22.327Z,100800
2018-03-22T09:05:50.715Z,100808
2018-03-22T09:08:19.036Z,100768
2018-03-22T09:10:47.593Z,100811
2018-03-22T09:13:16.247Z,100807
2018-03-22T09:15:46.378Z,100803
2018-03-22T09:18:14.716Z,100810
2018-03-22T09:20:43.874Z,100801
2018-03-22T09:23:12.452Z,100802
2018-03-22T09:25:40.767Z,100796
2018-03-22T09:28:09.959Z,100802
2018-03-22T09:30:38.271Z,100798
2018-03-22T09:33:06.832Z,100793
2018-03-22T09:35:35.337Z,100791
2018-03-22T09:38:03.861Z,100788
2018-03-22T09:40:32.253Z,100786
2018-03-22T09:43:00.732Z,100786
2018-03-22T09:45:29.072Z,100778
2018-03-22T09:47:57.388Z,100780
2018-03-22T09:50:25.837Z,100777
2018-03-22T09:52:54.362Z,100782
2018-03-22T09:55:22.792Z,100783
2018-03-22T09:57:51.073Z,100773
2018-03-22T10:00:19.381Z,100771
2018-03-22T10:02:47.805Z,100775
2018-03-22T10:05:16.218Z,100774
2018-03-22T10:07:44.589Z,100781
2018-03-22T10:10:13.043Z,100781
2018-03-22T10:12:41.481Z,100783
2018-03-22T10:15:11.508Z,100769
2018-03-22T10:17:39.779Z,100769
2018-03-22T10:20:08.272Z,100757
2018-03-22T10:22:37.325Z,100756
2018-03-22T10:25:05.757Z,100748
2018-03-22T10:27:34.798Z,100751
2018-03-22T10:30:03.207Z,100743
2018-03-22T10:32:31.524Z,100750
2018-03-22T10:34:59.979Z,100741
2018-03-22T10:37:29.044Z,100735
2018-03-22T10:39:57.402Z,100741
2018-03-22T10:42:25.763Z,100739
2018-03-22T10:44:54.059Z,100745
2018-03-22T10:47:22.599Z,100736
2018-03-22T10:49:51.075Z,100726
2018-03-22T10:52:20.259Z,100730
2018-03-22T10:54:49.339Z,100729
2018-03-22T10:57:17.854Z,100734
2018-03-22T10:59:46.139Z,100725
2018-03-22T11:02:19.903Z,100721
2018-03-22T11:04:48.204Z,100722
2018-03-22T11:07:17.328Z,100723
2018-03-22T11:09:45.704Z,100724
2018-03-22T11:12:14.005Z,100725
2018-03-22T11:14:42.338Z,100718
2018-03-22T11:17:10.793Z,100712
2018-03-22T11:19:39.244Z,100711
2018-03-22T11:22:07.639Z,100702
2018-03-22T11:24:36.021Z,100699
2018-03-22T11:27:04.343Z,100698
2018-03-22T11:29:32.654Z,100703
2018-03-22T11:32:00.973Z,100695
2018-03-22T11:34:30.105Z,100699
2018-03-22T11:36:58.563Z,100694
2018-03-22T11:39:26.880Z,100689
2018-03-22T11:41:55.233Z,100694
2018-03-22T11:44:23.573Z,100681
2018-03-22T11:46:52.749Z,100688
2018-03-22T11:49:21.073Z,100680
2018-03-22T11:51:49.538Z,100686
2018-03-22T11:54:17.920Z,100682
2018-03-22T11:56:46.967Z,100676
2018-03-22T11:59:15.319Z,100676
2018-03-22T12:01:43.654Z,100671
2018-03-22T12:04:12.719Z,100674
2018-03-22T12:06:41.034Z,100674
2018-03-22T12:09:10.283Z,100678
2018-03-22T12:11:38.613Z,100683
2018-03-22T12:14:07.683Z,100669
2018-03-22T12:16:36.204Z,100672
2018-03-22T12:19:05.780Z,100667
2018-03-22T12:21:34.173Z,100666
2018-03-22T12:24:03.235Z,100670
2018-03-22T12:26:31.769Z,100667
2018-03-22T12:29:00.224Z,100664
2018-03-22T12:31:29.373Z,100663
2018-03-22T12:33:57.703Z,100658
2018-03-22T12:36:26.844Z,100657
2018-03-22T12:38:55.215Z,100654
2018-03-22T12:41:23.511Z,100654
2018-03-22T12:43:52.808Z,100648
2018-03-22T12:46:21.134Z,100643
2018-03-22T12:48:51.369Z,100632
2018-03-22T12:51:19.769Z,100628
2018-03-22T12:53:48.549Z,100628
2018-03-22T12:56:16.929Z,100626
2018-03-22T12:58:45.298Z,100627
2018-03-22T13:01:13.695Z,100628
2018-03-22T13:03:42.148Z,100622
2018-03-22T13:06:10.493Z,100623
2018-03-22T13:08:39.628Z,100623
2018-03-22T13:11:07.959Z,100619
2018-03-22T13:13:37.488Z,100611
2018-03-22T13:16:06.684Z,100608
2018-03-22T13:18:35.735Z,100610
2018-03-22T13:21:04.869Z,100607
2018-03-22T13:23:33.249Z,100600
2018-03-22T13:26:02.518Z,100601
2018-03-22T13:28:30.929Z,100604
2018-03-22T13:30:59.995Z,100601
2018-03-22T13:33:28.540Z,100596
2018-03-22T13:35:57.009Z,100594
2018-03-22T13:38:25.399Z,100597
2018-03-22T13:40:53.915Z,100595
2018-03-22T13:43:22.436Z,100601
2018-03-22T13:45:51.744Z,100598
2018-03-22T13:48:20.814Z,100596
2018-03-22T13:50:49.975Z,100595
2018-03-22T13:53:18.354Z,100595
2018-03-22T13:55:46.815Z,100600
2018-03-22T13:58:15.530Z,100596
2018-03-22T14:00:43.958Z,100591
2018-03-22T14:03:12.261Z,100591
2018-03-22T14:05:40.621Z,100583
2018-03-22T14:08:09.119Z,100587
2018-03-22T14:10:37.756Z,100582
2018-03-22T14:13:06.840Z,100577
2018-03-22T14:15:36.216Z,100578
2018-03-22T14:18:04.523Z,100571
2018-03-22T14:20:32.968Z,100577
2018-03-22T14:23:01.330Z,100568
2018-03-22T14:25:31.259Z,100562
2018-03-22T14:27:59.585Z,100562
2018-03-22T14:30:28.681Z,100568
2018-03-22T14:32:57.850Z,100562
2018-03-22T14:35:26.347Z,100564
2018-03-22T14:37:55.437Z,100557
2018-03-22T14:40:24.650Z,100551
2018-03-22T14:42:53.776Z,100551
2018-03-22T14:45:22.139Z,100545
2018-03-22T14:47:50.514Z,100551
2018-03-22T14:50:18.849Z,100547
2018-03-22T14:52:47.285Z,100547
2018-03-22T14:55:15.647Z,100545
2018-03-22T14:57:45.027Z,100539
2018-03-22T15:00:13.444Z,100540
2018-03-22T15:02:41.786Z,100543
2018-03-22T15:05:11.026Z,100548
2018-03-22T15:07:39.509Z,100539
2018-03-22T15:10:07.949Z,100540
2018-03-22T15:12:37.119Z,100531
2018-03-22T15:15:05.469Z,100531
2018-03-22T15:17:34.046Z,100535
2018-03-22T15:20:02.410Z,100531
2018-03-22T15:22:30.814Z,100531
2018-03-22T15:24:59.354Z,100527
2018-03-22T15:27:28.604Z,100522
2018-03-22T15:29:58.349Z,100526
2018-03-22T15:32:27.470Z,100526
2018-03-22T15:34:55.791Z,100527
2018-03-22T15:37:24.164Z,100523
2018-03-22T15:39:52.773Z,100527
2018-03-22T15:42:21.374Z,100529
2018-03-22T15:44:50.539Z,100526
2018-03-22T15:47:18.911Z,100528
2018-03-22T15:49:47.350Z,100534
2018-03-22T15:52:15.729Z,100530
2018-03-22T15:54:44.194Z,100531
2018-03-22T15:57:13.863Z,100526
2018-03-22T15:59:42.240Z,100534
2018-03-22T16:02:12.109Z,100534
2018-03-22T16:04:40.474Z,100531
2018-03-22T16:07:08.804Z,100536
2018-03-22T16:09:37.124Z,100531
2018-03-22T16:12:06.384Z,100535
2018-03-22T16:14:35.034Z,100536
2018-03-22T16:17:03.561Z,100539
2018-03-22T16:19:32.017Z,100540
2018-03-22T16:22:00.381Z,100535
2018-03-22T16:24:28.714Z,100536
2018-03-22T16:26:57.197Z,100534
2018-03-22T16:29:25.742Z,100545
2018-03-22T16:31:54.232Z,100538
2018-03-22T16:34:22.563Z,100537
2018-03-22T16:36:51.000Z,100535
2018-03-22T16:39:19.436Z,100539
2018-03-22T16:41:48.301Z,100538
2018-03-22T16:44:16.803Z,100534
2018-03-22T16:46:45.465Z,100538
2018-03-22T16:49:13.961Z,100533
2018-03-22T16:51:42.281Z,100536
2018-03-22T16:54:10.811Z,100541
2018-03-22T16:56:39.216Z,100546
2018-03-22T16:59:08.540Z,100541
2018-03-22T17:01:36.969Z,100542
2018-03-22T17:04:05.394Z,100538
2018-03-22T17:06:34.528Z,100538
2018-03-22T17:09:03.876Z,100540
2018-03-22T17:11:32.256Z,100536
2018-03-22T17:14:00.746Z,100542
2018-03-22T17:16:29.234Z,100541
2018-03-22T17:18:57.787Z,100546
2018-03-22T17:21:26.096Z,100551
2018-03-22T17:23:54.407Z,100549
2018-03-22T17:26:23.597Z,100554
2018-03-22T17:28:52.763Z,100553
2018-03-22T17:31:21.133Z,100553
2018-03-22T17:33:49.856Z,100551
2018-03-22T17:36:19.192Z,100547
2018-03-22T17:38:47.727Z,100551
2018-03-22T17:41:16.262Z,100550
2018-03-22T17:43:44.607Z,100556
2018-03-22T17:46:14.861Z,100555
2018-03-22T17:48:43.327Z,100551
2018-03-22T17:51:11.667Z,100550
2018-03-22T17:53:40.011Z,100551
2018-03-22T17:56:08.354Z,100547
2018-03-22T17:58:38.456Z,100544
2018-03-22T18:01:08.094Z,100549
2018-03-22T18:03:36.675Z,100555
2018-03-22T18:06:05.187Z,100550
2018-03-22T18:08:33.596Z,100546
2018-03-22T18:11:02.147Z,100541
2018-03-22T18:13:31.531Z,100543
2018-03-22T18:16:00.070Z,100543
2018-03-22T18:18:29.591Z,100545
2018-03-22T18:20:58.007Z,100543
2018-03-22T18:23:26.587Z,100544
2018-03-22T18:25:54.946Z,100549
2018-03-22T18:28:23.391Z,100547
2018-03-22T18:30:51.761Z,100550
2018-03-22T18:33:20.256Z,100553
2018-03-22T18:35:48.763Z,100553
2018-03-22T18:38:17.141Z,100551
2018-03-22T18:40:45.607Z,100554
2018-03-22T18:43:14.839Z,100555
2018-03-22T18:45:43.727Z,100554
2018-03-22T18:48:13.923Z,100551
2018-03-22T18:50:42.254Z,100543
2018-03-22T18:53:10.631Z,100551
2018-03-22T18:55:39.067Z,100550
2018-03-22T18:58:07.496Z,100546
2018-03-22T19:00:36.086Z,100544
2018-03-22T19:03:04.670Z,100544
2018-03-22T19:05:33.076Z,100545
2018-03-22T19:08:02.200Z,100545
2018-03-22T19:10:30.811Z,100543
2018-03-22T19:12:59.196Z,100546
2018-03-22T19:15:27.661Z,100557
2018-03-22T19:17:56.007Z,100552
2018-03-22T19:20:24.349Z,100556
2018-03-22T19:22:53.405Z,100552
2018-03-22T19:25:22.111Z,100551
2018-03-22T19:27:50.454Z,100553
2018-03-22T19:30:19.043Z,100550
2018-03-22T19:32:47.464Z,100551
2018-03-22T19:35:15.849Z,100551
2018-03-22T19:37:44.414Z,100552
2018-03-22T19:40:12.857Z,100550
2018-03-22T19:42:41.365Z,100551
2018-03-22T19:45:09.813Z,100555
2018-03-22T19:47:38.375Z,100548
2018-03-22T19:50:07.803Z,100552
2018-03-22T19:52:36.305Z,100545
2018-03-22T19:55:05.181Z,100550
2018-03-22T19:57:34.873Z,100543
2018-03-22T20:00:03.707Z,100548
2018-03-22T20:02:32.351Z,100545
2018-03-22T20:05:00.929Z,100541
2018-03-22T20:07:29.503Z,100543
2018-03-22T20:09:58.849Z,100544
2018-03-22T20:12:27.230Z,100544
2018-03-22T20:14:55.659Z,100543
2018-03-22T20:17:24.820Z,100534
2018-03-22T20:19:53.591Z,100537
2018-03-22T20:22:21.999Z,100537
2018-03-22T20:24:50.367Z,100530
2018-03-22T20:27:18.746Z,100527
2018-03-22T20:29:47.138Z,100527
2018-03-22T20:32:17.418Z,100528
2018-03-22T20:34:45.942Z,100531
2018-03-22T20:37:14.312Z,100527
2018-03-22T20:39:42.673Z,100524
2018-03-22T20:42:11.343Z,100525
2018-03-22T20:44:39.814Z,100524
2018-03-22T20:47:08.321Z,100523
2018-03-22T20:49:36.685Z,100522
2018-03-22T20:52:05.167Z,100520
2018-03-22T20:54:33.545Z,100519
2018-03-22T20:57:02.045Z,100519
2018-03-22T20:59:30.586Z,100522
2018-03-22T21:01:58.971Z,100513
2018-03-22T21:04:27.316Z,100524
2018-03-22T21:06:56.489Z,100522
2018-03-22T21:09:25.075Z,100520
2018-03-22T21:11:53.418Z,100515
2018-03-22T21:14:21.808Z,100516
2018-03-22T21:16:50.154Z,100526
2018-03-22T21:19:18.657Z,100519
2018-03-22T21:21:47.445Z,100519
2018-03-22T21:24:15.862Z,100516
2018-03-22T21:26:44.211Z,100520
2018-03-22T21:29:12.532Z,100518
2018-03-22T21:31:40.899Z,100520
2018-03-22T21:34:09.369Z,100518
2018-03-22T21:36:38.019Z,100523
2018-03-22T21:39:06.709Z,100526
2018-03-22T21:41:35.046Z,100517
2018-03-22T21:44:16.233Z,100518
2018-03-22T21:46:44.720Z,100518
2018-03-22T21:49:13.854Z,100510
2018-03-22T21:51:42.304Z,100509
2018-03-22T21:54:10.754Z,100510
2018-03-22T21:56:39.086Z,100508
2018-03-22T21:59:07.561Z,100485
2018-03-22T22:01:36.094Z,100507
2018-03-22T22:04:04.601Z,100508
2018-03-22T22:06:33.098Z,100502
2018-03-22T22:09:01.687Z,100503
2018-03-22T22:11:31.157Z,100495
2018-03-22T22:14:00.210Z,100493
2018-03-22T22:16:28.730Z,100493
2018-03-22T22:18:57.023Z,100499
2018-03-22T22:21:25.390Z,100490
2018-03-22T22:23:54.621Z,100501
2018-03-22T22:26:23.051Z,100494
2018-03-22T22:28:51.553Z,100494
2018-03-22T22:31:19.961Z,100484
2018-03-22T22:33:48.315Z,100481
2018-03-22T22:36:16.694Z,100481
2018-03-22T22:38:45.216Z,100479
2018-03-22T22:41:13.717Z,100472
2018-03-22T22:43:42.067Z,100465
2018-03-22T22:46:10.482Z,100470
2018-03-22T22:48:38.860Z,100467
2018-03-22T22:51:07.367Z,100465
2018-03-22T22:53:36.554Z,100457
2018-03-22T22:56:05.666Z,100455
2018-03-22T22:58:33.992Z,100451
2018-03-22T23:01:02.656Z,100449
2018-03-22T23:03:30.959Z,100443
2018-03-22T23:05:59.469Z,100441
2018-03-22T23:08:28.548Z,100436
2018-03-22T23:10:58.003Z,100439
2018-03-22T23:13:28.023Z,100439
2018-03-22T23:15:58.103Z,100441
2018-03-22T23:18:26.551Z,100443
2018-03-22T23:20:54.887Z,100438
2018-03-22T23:23:23.259Z,100438
2018-03-22T23:25:51.547Z,100443
2018-03-22T23:28:20.171Z,100439
2018-03-22T23:30:48.485Z,100429
2018-03-22T23:33:16.991Z,100431
2018-03-22T23:35:45.277Z,100428
2018-03-22T23:38:13.617Z,100431
2018-03-22T23:40:42.708Z,100433
2018-03-22T23:43:11.762Z,100425
2018-03-22T23:45:40.102Z,100425
2018-03-22T23:48:08.488Z,100424
2018-03-22T23:50:36.824Z,100421
2018-03-22T23:53:05.107Z,100424
2018-03-22T23:55:34.198Z,100427
2018-03-22T23:58:03.315Z,100423
